createdAt,value
2023-04-09T00:01:11.417Z,0.20
2023-04-09T00:03:40.457Z,0.20
2023-04-09T00:06:08.909Z,0.20
2023-04-09T00:08:37.110Z,0.20
2023-04-09T00:11:06.862Z,0.20
2023-04-09T00:13:39.312Z,0.20
2023-04-09T00:16:09.048Z,0.20
2023-04-09T00:18:37.508Z,0.20
2023-04-09T00:21:07.092Z,0.20
2023-04-09T00:23:35.924Z,0.20
2023-04-09T00:26:04.145Z,0.20
2023-04-09T00:28:33.819Z,0.20
2023-04-09T00:31:02.048Z,0.20
2023-04-09T00:33:30.443Z,0.20
2023-04-09T00:35:58.822Z,0.20
2023-04-09T00:38:27.117Z,0.20
2023-04-09T00:40:55.439Z,0.20
2023-04-09T00:43:23.803Z,0.30
2023-04-09T00:45:53.439Z,0.20
2023-04-09T00:48:22.155Z,0.20
2023-04-09T00:50:50.306Z,0.20
2023-04-09T00:53:19.031Z,0.30
2023-04-09T00:55:47.413Z,0.20
2023-04-09T00:58:15.841Z,0.20
2023-04-09T01:00:44.079Z,0.30
2023-04-09T01:03:13.964Z,0.30
2023-04-09T01:05:53.226Z,0.20
2023-04-09T01:08:32.942Z,0.20
2023-04-09T01:11:11.060Z,0.20
2023-04-09T01:13:50.400Z,0.30
2023-04-09T01:16:23.587Z,0.20
2023-04-09T01:18:59.070Z,0.20
2023-04-09T01:21:33.289Z,0.20
2023-04-09T01:24:19.626Z,0.20
2023-04-09T01:26:58.304Z,0.20
2023-04-09T01:29:35.492Z,0.20
2023-04-09T01:32:05.924Z,0.20
2023-04-09T01:34:35.846Z,0.20
2023-04-09T01:37:05.019Z,0.20
2023-04-09T01:39:33.929Z,0.20
2023-04-09T01:42:04.138Z,0.30
2023-04-09T01:44:34.379Z,0.27
2023-04-09T01:47:03.304Z,0.30
2023-04-09T01:49:32.137Z,0.30
2023-04-09T01:52:00.677Z,0.30
2023-04-09T01:54:28.898Z,0.23
2023-04-09T01:56:58.945Z,0.30
2023-04-09T01:59:27.200Z,0.20
2023-04-09T02:02:02.321Z,0.20
2023-04-09T02:04:35.081Z,0.20
2023-04-09T02:07:08.846Z,0.20
2023-04-09T02:09:40.459Z,0.20
2023-04-09T02:12:13.294Z,0.20
2023-04-09T02:14:42.298Z,0.27
2023-04-09T02:17:13.640Z,0.27
2023-04-09T02:19:43.225Z,0.20
2023-04-09T02:22:12.343Z,0.30
2023-04-09T02:24:41.555Z,0.20
2023-04-09T02:27:09.925Z,0.20
2023-04-09T02:29:40.281Z,0.27
2023-04-09T02:32:08.920Z,0.30
2023-04-09T02:34:38.476Z,0.20
2023-04-09T02:37:07.377Z,0.30
2023-04-09T02:39:35.625Z,0.20
2023-04-09T02:42:03.866Z,0.20
2023-04-09T02:44:32.085Z,0.30
2023-04-09T02:47:00.425Z,0.30
2023-04-09T02:49:28.753Z,0.30
2023-04-09T02:51:58.365Z,0.23
2023-04-09T02:54:26.616Z,0.20
2023-04-09T02:56:54.780Z,0.30
2023-04-09T02:59:23.009Z,0.30
2023-04-09T03:01:51.429Z,0.30
2023-04-09T03:04:19.829Z,0.20
2023-04-09T03:06:48.137Z,0.30
2023-04-09T03:09:17.746Z,0.20
2023-04-09T03:11:45.954Z,0.23
2023-04-09T03:14:14.261Z,0.20
2023-04-09T03:16:42.869Z,0.20
2023-04-09T03:19:11.081Z,0.40
2023-04-09T03:21:39.288Z,0.30
2023-04-09T03:24:07.805Z,0.20
2023-04-09T03:26:37.954Z,0.30
2023-04-09T03:29:08.434Z,0.30
2023-04-09T03:31:36.740Z,0.20
2023-04-09T03:34:05.046Z,0.30
2023-04-09T03:36:34.574Z,0.30
2023-04-09T03:39:04.692Z,0.30
2023-04-09T03:41:44.292Z,0.30
2023-04-09T03:44:16.458Z,0.30
2023-04-09T03:46:59.630Z,0.30
2023-04-09T03:49:29.367Z,0.20
2023-04-09T03:52:04.154Z,0.30
2023-04-09T03:54:38.506Z,0.30
2023-04-09T03:57:14.345Z,0.30
2023-04-09T03:59:45.297Z,0.30
2023-04-09T04:02:16.212Z,0.30
2023-04-09T04:04:50.435Z,0.30
2023-04-09T04:07:18.806Z,0.30
2023-04-09T04:09:54.881Z,0.30
2023-04-09T04:12:24.983Z,0.30
2023-04-09T04:15:05.644Z,0.20
2023-04-09T04:17:47.659Z,0.20
2023-04-09T04:20:25.046Z,0.30
2023-04-09T04:23:07.313Z,0.30
2023-04-09T04:25:42.068Z,0.30
2023-04-09T04:28:15.708Z,0.30
2023-04-09T04:30:44.175Z,0.30
2023-04-09T04:33:12.825Z,0.30
2023-04-09T04:36:08.160Z,0.30
2023-04-09T04:38:41.520Z,0.20
2023-04-09T04:41:16.113Z,0.30
2023-04-09T04:43:52.146Z,0.30
2023-04-09T04:46:23.787Z,0.30
2023-04-09T04:48:52.168Z,0.30
2023-04-09T04:51:21.666Z,0.30
2023-04-09T04:54:01.918Z,0.30
2023-04-09T04:56:30.859Z,0.30
2023-04-09T04:59:20.706Z,0.30
2023-04-09T05:02:02.599Z,0.30
2023-04-09T05:04:35.306Z,0.30
2023-04-09T05:07:04.778Z,0.30
2023-04-09T05:09:33.018Z,0.30
2023-04-09T05:12:05.437Z,0.30
2023-04-09T05:14:35.653Z,0.30
2023-04-09T05:17:04.103Z,0.30
2023-04-09T05:19:42.114Z,0.30
2023-04-09T05:22:11.905Z,0.30
2023-04-09T05:24:40.626Z,0.30
2023-04-09T05:27:08.827Z,0.30
2023-04-09T05:29:38.498Z,0.30
2023-04-09T05:32:09.530Z,0.30
2023-04-09T05:34:41.044Z,0.30
2023-04-09T05:37:09.803Z,0.30
2023-04-09T05:39:38.000Z,0.30
2023-04-09T05:42:06.807Z,0.30
2023-04-09T05:44:53.291Z,0.30
2023-04-09T05:47:23.050Z,0.30
2023-04-09T05:50:09.993Z,0.30
2023-04-09T05:52:38.572Z,0.30
2023-04-09T05:55:09.752Z,0.20
2023-04-09T05:57:54.762Z,0.30
2023-04-09T06:00:25.022Z,0.30
2023-04-09T06:02:53.283Z,0.30
2023-04-09T06:05:22.043Z,0.30
2023-04-09T06:07:50.351Z,0.30
2023-04-09T06:10:18.550Z,0.30
2023-04-09T06:12:48.851Z,0.30
2023-04-09T06:15:17.172Z,0.20
2023-04-09T06:17:46.849Z,0.20
2023-04-09T06:20:15.316Z,0.30
2023-04-09T06:22:43.524Z,0.30
2023-04-09T06:25:11.730Z,0.20
2023-04-09T06:27:40.628Z,0.30
2023-04-09T06:30:10.589Z,0.30
2023-04-09T06:32:51.072Z,0.20
2023-04-09T06:35:23.165Z,0.20
2023-04-09T06:37:51.471Z,0.20
2023-04-09T06:40:22.838Z,0.20
2023-04-09T06:42:51.456Z,0.20
2023-04-09T06:45:25.360Z,0.20
2023-04-09T06:47:53.636Z,0.20
2023-04-09T06:50:23.204Z,0.20
2023-04-09T06:52:52.107Z,0.20
2023-04-09T06:55:20.441Z,0.20
2023-04-09T06:57:48.775Z,0.20
2023-04-09T07:00:17.146Z,0.20
2023-04-09T07:02:45.665Z,0.20
2023-04-09T07:05:13.954Z,0.20
2023-04-09T07:07:43.513Z,0.20
2023-04-09T07:10:12.079Z,0.20
2023-04-09T07:12:40.286Z,0.20
2023-04-09T07:15:09.454Z,0.20
2023-04-09T07:17:37.678Z,0.20
2023-04-09T07:20:06.828Z,0.20
2023-04-09T07:22:35.028Z,0.20
2023-04-09T07:25:04.850Z,0.20
2023-04-09T07:27:33.245Z,0.10
2023-04-09T07:30:01.888Z,0.10
2023-04-09T07:32:30.793Z,0.20
2023-04-09T07:34:59.426Z,0.20
2023-04-09T07:37:28.088Z,0.10
2023-04-09T07:39:56.607Z,0.20
2023-04-09T07:42:27.329Z,0.20
2023-04-09T07:44:56.594Z,0.20
2023-04-09T07:47:25.036Z,0.10
2023-04-09T07:49:53.286Z,0.10
2023-04-09T07:52:21.547Z,0.20
2023-04-09T07:54:49.834Z,0.10
2023-04-09T07:57:18.027Z,0.10
2023-04-09T07:59:47.725Z,0.10
2023-04-09T08:02:16.051Z,0.20
2023-04-09T08:04:44.545Z,0.10
2023-04-09T08:07:12.985Z,0.10
2023-04-09T08:09:41.467Z,0.10
2023-04-09T08:12:09.803Z,0.10
2023-04-09T08:14:38.043Z,0.10
2023-04-09T08:17:07.584Z,0.10
2023-04-09T08:19:35.896Z,0.10
2023-04-09T08:22:04.142Z,0.10
2023-04-09T08:24:32.412Z,0.10
2023-04-09T08:27:01.831Z,0.10
2023-04-09T08:29:30.509Z,0.10
2023-04-09T08:31:58.732Z,0.10
2023-04-09T08:34:28.309Z,0.10
2023-04-09T08:36:57.379Z,0.10
2023-04-09T08:39:26.080Z,0.10
2023-04-09T08:41:54.627Z,0.10
2023-04-09T08:44:22.938Z,0.10
2023-04-09T08:46:51.154Z,0.10
2023-04-09T08:49:19.471Z,0.10
2023-04-09T08:51:49.622Z,0.10
2023-04-09T08:54:20.176Z,0.10
2023-04-09T08:56:48.720Z,0.10
2023-04-09T08:59:19.136Z,0.10
2023-04-09T09:01:52.694Z,0.10
2023-04-09T09:04:21.443Z,0.10
2023-04-09T09:06:53.186Z,0.10
2023-04-09T09:09:22.451Z,0.10
2023-04-09T09:11:52.026Z,0.10
2023-04-09T09:14:21.074Z,0.10
2023-04-09T09:17:06.113Z,0.10
2023-04-09T09:19:35.793Z,0.10
2023-04-09T09:22:07.638Z,0.10
2023-04-09T09:24:48.508Z,0.10
2023-04-09T09:27:36.396Z,0.10
2023-04-09T09:30:05.852Z,0.10
2023-04-09T09:32:34.386Z,0.13
2023-04-09T09:35:04.805Z,0.10
2023-04-09T09:37:35.025Z,0.10
2023-04-09T09:40:03.705Z,0.10
2023-04-09T09:42:31.954Z,0.10
2023-04-09T09:45:00.432Z,0.10
2023-04-09T09:47:31.325Z,0.10
2023-04-09T09:49:59.630Z,0.10
2023-04-09T09:52:27.857Z,0.00
2023-04-09T09:55:00.738Z,0.10
2023-04-09T09:57:31.683Z,0.10
2023-04-09T10:00:04.129Z,0.10
2023-04-09T10:02:44.622Z,0.10
2023-04-09T10:05:13.017Z,0.10
2023-04-09T10:07:41.712Z,0.10
2023-04-09T10:10:11.671Z,0.05
2023-04-09T10:12:41.845Z,0.10
2023-04-09T10:15:11.185Z,0.10
2023-04-09T10:17:39.807Z,0.10
2023-04-09T10:20:15.640Z,0.00
2023-04-09T10:22:47.161Z,0.10
2023-04-09T10:25:17.774Z,0.10
2023-04-09T10:27:46.238Z,0.10
2023-04-09T10:30:32.984Z,0.10
2023-04-09T10:33:14.561Z,0.00
2023-04-09T10:35:44.080Z,0.10
2023-04-09T10:38:12.438Z,0.10
2023-04-09T10:40:49.497Z,0.10
2023-04-09T10:43:21.082Z,0.00
2023-04-09T10:45:53.356Z,0.10
2023-04-09T10:48:22.240Z,0.10
2023-04-09T10:50:52.304Z,0.10
2023-04-09T10:53:25.436Z,0.10
2023-04-09T10:55:56.272Z,0.10
2023-04-09T10:58:24.571Z,0.08
2023-04-09T11:00:53.013Z,0.10
2023-04-09T11:03:27.196Z,0.10
2023-04-09T11:05:59.245Z,0.10
2023-04-09T11:08:31.045Z,0.00
2023-04-09T11:11:01.735Z,0.10
2023-04-09T11:13:31.304Z,0.10
2023-04-09T11:16:01.154Z,0.00
2023-04-09T11:18:31.479Z,0.10
2023-04-09T11:21:01.260Z,0.10
2023-04-09T11:23:29.826Z,0.10
2023-04-09T11:25:58.041Z,0.10
2023-04-09T11:28:27.911Z,0.10
2023-04-09T11:30:56.121Z,0.00
2023-04-09T11:33:24.386Z,0.10
2023-04-09T11:35:53.704Z,0.10
2023-04-09T11:38:21.974Z,0.00
2023-04-09T11:40:51.289Z,0.10
2023-04-09T11:43:20.991Z,0.10
2023-04-09T11:45:51.521Z,0.00
2023-04-09T11:48:21.675Z,0.10
2023-04-09T11:50:50.068Z,0.10
2023-04-09T11:53:19.659Z,0.10
2023-04-09T11:55:49.497Z,0.10
2023-04-09T11:58:18.397Z,0.10
2023-04-09T12:00:46.949Z,0.10
2023-04-09T12:03:17.290Z,0.10
2023-04-09T12:05:50.859Z,0.10
2023-04-09T12:08:24.901Z,0.05
2023-04-09T12:10:54.329Z,0.10
2023-04-09T12:13:22.740Z,0.03
2023-04-09T12:15:51.568Z,0.10
2023-04-09T12:18:23.831Z,0.10
2023-04-09T12:20:52.114Z,0.10
2023-04-09T12:23:20.391Z,0.10
2023-04-09T12:25:48.674Z,0.10
2023-04-09T12:28:18.277Z,0.10
2023-04-09T12:30:49.058Z,0.10
2023-04-09T12:33:17.328Z,0.10
2023-04-09T12:35:47.753Z,0.10
2023-04-09T12:38:16.096Z,0.10
2023-04-09T12:40:44.300Z,0.00
2023-04-09T12:43:12.556Z,0.10
2023-04-09T12:45:40.830Z,0.10
2023-04-09T12:48:09.099Z,0.00
2023-04-09T12:50:37.406Z,0.00
2023-04-09T12:53:07.121Z,0.10
2023-04-09T12:55:35.636Z,0.10
2023-04-09T12:58:03.829Z,0.10
2023-04-09T13:00:33.436Z,0.10
2023-04-09T13:03:01.943Z,0.10
2023-04-09T13:05:31.442Z,0.10
2023-04-09T13:07:59.975Z,0.10
2023-04-09T13:10:30.466Z,0.10
2023-04-09T13:12:58.703Z,0.10
2023-04-09T13:15:27.396Z,0.10
2023-04-09T13:17:55.680Z,0.00
2023-04-09T13:20:23.888Z,0.10
2023-04-09T13:22:52.431Z,0.10
2023-04-09T13:25:20.655Z,0.03
2023-04-09T13:27:50.311Z,0.03
2023-04-09T13:30:18.746Z,0.10
2023-04-09T13:32:46.958Z,0.10
2023-04-09T13:35:15.345Z,0.10
2023-04-09T13:37:43.745Z,0.10
2023-04-09T13:40:12.618Z,0.10
2023-04-09T13:42:40.840Z,0.10
2023-04-09T13:45:11.178Z,0.05
2023-04-09T13:47:39.437Z,0.10
2023-04-09T13:50:10.196Z,0.10
2023-04-09T13:52:38.499Z,0.10
2023-04-09T13:55:08.156Z,0.10
2023-04-09T13:57:36.547Z,0.10
2023-04-09T14:00:05.881Z,0.10
2023-04-09T14:02:36.307Z,0.10
2023-04-09T14:05:04.744Z,0.10
2023-04-09T14:07:32.959Z,0.10
2023-04-09T14:10:01.222Z,0.10
2023-04-09T14:12:29.473Z,0.10
2023-04-09T14:14:57.664Z,0.10
2023-04-09T14:17:25.874Z,0.10
2023-04-09T14:19:55.477Z,0.08
2023-04-09T14:22:23.674Z,0.10
2023-04-09T14:24:51.868Z,0.10
2023-04-09T14:27:20.073Z,0.00
2023-04-09T14:29:48.296Z,0.00
2023-04-09T14:32:16.506Z,0.10
2023-04-09T14:34:44.725Z,0.10
2023-04-09T14:37:14.424Z,0.05
2023-04-09T14:39:42.616Z,0.10
2023-04-09T14:42:10.926Z,0.10
2023-04-09T14:44:39.131Z,0.00
2023-04-09T14:47:07.367Z,0.10
2023-04-09T14:49:35.620Z,0.10
2023-04-09T14:52:03.919Z,0.10
2023-04-09T14:54:34.091Z,0.03
2023-04-09T14:57:02.880Z,0.10
2023-04-09T14:59:31.106Z,0.10
2023-04-09T15:01:59.419Z,0.10
2023-04-09T15:04:27.846Z,0.10
2023-04-09T15:06:56.319Z,0.10
2023-04-09T15:09:24.720Z,0.10
2023-04-09T15:11:55.047Z,0.10
2023-04-09T15:14:23.808Z,0.10
2023-04-09T15:16:55.721Z,0.10
2023-04-09T15:19:25.005Z,0.10
2023-04-09T15:21:53.164Z,0.10
2023-04-09T15:24:21.352Z,0.10
2023-04-09T15:26:49.812Z,0.00
2023-04-09T15:29:19.459Z,0.00
2023-04-09T15:31:49.050Z,0.10
2023-04-09T15:34:17.286Z,0.10
2023-04-09T15:36:46.409Z,0.10
2023-04-09T15:39:15.216Z,0.10
2023-04-09T15:41:43.425Z,0.10
2023-04-09T15:44:11.705Z,0.10
2023-04-09T15:46:41.546Z,0.10
2023-04-09T15:49:09.828Z,0.10
2023-04-09T15:51:37.986Z,0.10
2023-04-09T15:54:06.309Z,0.08
2023-04-09T15:56:36.579Z,0.10
2023-04-09T15:59:05.401Z,0.10
2023-04-09T16:01:34.373Z,0.08
2023-04-09T16:04:04.916Z,0.10
2023-04-09T16:06:33.472Z,0.10
2023-04-09T16:09:02.787Z,0.10
2023-04-09T16:11:31.121Z,0.00
2023-04-09T16:13:59.291Z,0.10
2023-04-09T16:16:27.551Z,0.10
2023-04-09T16:18:55.962Z,0.10
2023-04-09T16:21:25.904Z,0.03
2023-04-09T16:23:54.107Z,0.10
2023-04-09T16:26:22.319Z,0.10
2023-04-09T16:28:50.569Z,0.10
2023-04-09T16:31:18.906Z,0.10
2023-04-09T16:33:47.128Z,0.10
2023-04-09T16:36:15.456Z,0.10
2023-04-09T16:38:45.099Z,0.10
2023-04-09T16:41:13.352Z,0.10
2023-04-09T16:43:41.522Z,0.10
2023-04-09T16:46:10.758Z,0.10
2023-04-09T16:48:41.647Z,0.10
2023-04-09T16:51:09.938Z,0.10
2023-04-09T16:53:39.012Z,0.10
2023-04-09T16:56:09.504Z,0.10
2023-04-09T16:58:37.830Z,0.10
2023-04-09T17:01:06.637Z,0.10
2023-04-09T17:03:34.983Z,0.10
2023-04-09T17:06:04.625Z,0.10
2023-04-09T17:08:32.986Z,0.10
2023-04-09T17:11:03.123Z,0.10
2023-04-09T17:13:35.086Z,0.10
2023-04-09T17:16:03.696Z,0.10
2023-04-09T17:18:32.377Z,0.10
2023-04-09T17:21:00.613Z,0.10
2023-04-09T17:23:28.808Z,0.10
2023-04-09T17:25:57.132Z,0.10
2023-04-09T17:28:25.462Z,0.10
2023-04-09T17:30:55.107Z,0.10
2023-04-09T17:33:23.348Z,0.10
2023-04-09T17:35:52.857Z,0.10
2023-04-09T17:38:21.659Z,0.10
2023-04-09T17:40:50.550Z,0.05
2023-04-09T17:43:18.757Z,0.10
2023-04-09T17:45:46.923Z,0.10
2023-04-09T17:48:16.509Z,0.10
2023-04-09T17:50:44.930Z,0.10
2023-04-09T17:53:13.098Z,0.10
2023-04-09T17:55:48.111Z,0.10
2023-04-09T17:58:16.493Z,0.10
2023-04-09T18:00:44.795Z,0.10
2023-04-09T18:03:13.365Z,0.10
2023-04-09T18:05:43.319Z,0.00
2023-04-09T18:08:11.607Z,0.00
2023-04-09T18:10:39.793Z,0.00
2023-04-09T18:13:08.108Z,0.10
2023-04-09T18:15:36.284Z,0.10
2023-04-09T18:18:04.613Z,0.08
2023-04-09T18:20:32.835Z,0.10
2023-04-09T18:23:02.386Z,0.00
2023-04-09T18:25:30.630Z,0.10
2023-04-09T18:27:58.824Z,0.10
2023-04-09T18:30:27.201Z,0.10
2023-04-09T18:32:55.409Z,0.10
2023-04-09T18:35:23.681Z,0.10
2023-04-09T18:37:51.870Z,0.00
2023-04-09T18:40:21.499Z,0.10
2023-04-09T18:42:52.409Z,0.10
2023-04-09T18:45:21.042Z,0.10
2023-04-09T18:47:49.254Z,0.10
2023-04-09T18:50:18.662Z,0.10
2023-04-09T18:52:47.223Z,0.10
2023-04-09T18:55:16.278Z,0.10
2023-04-09T18:57:46.037Z,0.13
2023-04-09T19:00:15.067Z,0.10
2023-04-09T19:02:43.707Z,0.10
2023-04-09T19:05:12.276Z,0.10
2023-04-09T19:07:40.439Z,0.10
2023-04-09T19:10:09.203Z,0.10
2023-04-09T19:12:37.383Z,0.10
2023-04-09T19:15:08.087Z,0.10
2023-04-09T19:17:36.297Z,0.10
2023-04-09T19:20:04.727Z,0.10
2023-04-09T19:22:32.971Z,0.10
2023-04-09T19:25:01.186Z,0.10
2023-04-09T19:27:29.606Z,0.10
2023-04-09T19:29:58.770Z,0.10
2023-04-09T19:32:28.454Z,0.10
2023-04-09T19:34:56.848Z,0.10
2023-04-09T19:37:27.446Z,0.10
2023-04-09T19:39:56.309Z,0.10
2023-04-09T19:42:24.992Z,0.10
2023-04-09T19:44:53.195Z,0.10
2023-04-09T19:47:21.421Z,0.10
2023-04-09T19:49:51.187Z,0.10
2023-04-09T19:52:19.723Z,0.10
2023-04-09T19:54:48.090Z,0.10
2023-04-09T19:57:16.451Z,0.20
2023-04-09T19:59:44.613Z,0.10
2023-04-09T20:02:12.972Z,0.10
2023-04-09T20:04:41.375Z,0.10
2023-04-09T20:07:10.962Z,0.10
2023-04-09T20:09:41.366Z,0.10
2023-04-09T20:12:10.264Z,0.10
2023-04-09T20:14:39.393Z,0.10
2023-04-09T20:17:08.877Z,0.10
2023-04-09T20:19:37.808Z,0.10
2023-04-09T20:22:06.180Z,0.10
2023-04-09T20:24:35.741Z,0.10
2023-04-09T20:27:03.945Z,0.10
2023-04-09T20:29:32.138Z,0.10
2023-04-09T20:32:00.390Z,0.10
2023-04-09T20:34:28.639Z,0.10
2023-04-09T20:36:57.568Z,0.10
2023-04-09T20:39:26.900Z,0.20
2023-04-09T20:41:56.660Z,0.10
2023-04-09T20:44:25.436Z,0.10
2023-04-09T20:46:53.751Z,0.10
2023-04-09T20:49:22.571Z,0.10
2023-04-09T20:51:51.874Z,0.10
2023-04-09T20:54:22.470Z,0.10
2023-04-09T20:56:51.331Z,0.10
2023-04-09T20:59:21.672Z,0.20
2023-04-09T21:01:50.148Z,0.20
2023-04-09T21:04:19.420Z,0.10
2023-04-09T21:06:47.730Z,0.20
2023-04-09T21:09:15.967Z,0.10
2023-04-09T21:11:44.208Z,0.10
2023-04-09T21:14:14.519Z,0.10
2023-04-09T21:16:44.087Z,0.10
2023-04-09T21:19:12.426Z,0.10
2023-04-09T21:21:40.832Z,0.20
2023-04-09T21:24:09.098Z,0.10
2023-04-09T21:26:49.981Z,0.20
2023-04-09T21:29:20.692Z,0.20
2023-04-09T21:31:50.643Z,0.20
2023-04-09T21:34:18.870Z,0.20
2023-04-09T21:36:47.671Z,0.10
2023-04-09T21:39:15.870Z,0.17
2023-04-09T21:41:44.061Z,0.20
2023-04-09T21:44:12.562Z,0.10
2023-04-09T21:46:41.806Z,0.20
2023-04-09T21:49:11.471Z,0.10
2023-04-09T21:51:39.910Z,0.17
2023-04-09T21:54:10.789Z,0.10
2023-04-09T21:56:39.617Z,0.10
2023-04-09T21:59:07.790Z,0.10
2023-04-09T22:01:36.072Z,0.20
2023-04-09T22:04:04.746Z,0.20
2023-04-09T22:06:34.517Z,0.20
2023-04-09T22:09:02.988Z,0.20
2023-04-09T22:11:31.521Z,0.20
2023-04-09T22:13:59.699Z,0.20
2023-04-09T22:16:28.232Z,0.20
2023-04-09T22:18:57.366Z,0.20
2023-04-09T22:21:26.457Z,0.20
2023-04-09T22:23:56.042Z,0.20
2023-04-09T22:26:24.345Z,0.10
2023-04-09T22:28:52.839Z,0.20
2023-04-09T22:31:21.608Z,0.20
2023-04-09T22:33:49.887Z,0.20
2023-04-09T22:36:19.162Z,0.13
2023-04-09T22:38:47.422Z,0.20
2023-04-09T22:41:17.560Z,0.17
2023-04-09T22:43:45.930Z,0.10
2023-04-09T22:46:14.169Z,0.10
2023-04-09T22:48:44.879Z,0.20
2023-04-09T22:51:23.769Z,0.20
2023-04-09T22:53:51.946Z,0.20
2023-04-09T22:56:22.216Z,0.10
2023-04-09T22:58:50.457Z,0.17
2023-04-09T23:01:22.041Z,0.20
2023-04-09T23:03:51.267Z,0.20
2023-04-09T23:06:19.530Z,0.20
2023-04-09T23:08:47.750Z,0.13
2023-04-09T23:11:16.210Z,0.20
2023-04-09T23:13:45.967Z,0.20
2023-04-09T23:16:15.034Z,0.20
2023-04-09T23:18:43.298Z,0.10
2023-04-09T23:21:12.418Z,0.20
2023-04-09T23:23:41.049Z,0.20
2023-04-09T23:26:09.219Z,0.20
2023-04-09T23:28:37.521Z,0.20
2023-04-09T23:31:07.290Z,0.20
2023-04-09T23:33:35.502Z,0.20
2023-04-09T23:36:03.695Z,0.20
2023-04-09T23:38:31.965Z,0.20
2023-04-09T23:41:00.312Z,0.20
2023-04-09T23:43:28.746Z,0.10
2023-04-09T23:45:56.920Z,0.10
2023-04-09T23:48:26.570Z,0.20
2023-04-09T23:50:55.006Z,0.20
2023-04-09T23:53:23.252Z,0.20
2023-04-09T23:55:52.708Z,0.10
2023-04-09T23:58:21.340Z,0.20
